Main page
METAR-TAF:

METAR-TAF

Airports :

Veliko Tarnovo, Bulgaria

Gorna Oryahovitsa Airport

latitude: 43-09N, longitude: 025-36E, elevation: m

Current weather observation

The report was made 14 minutes ago, at 04:30 UTC
Wind 1 kt from variable directions
Temperature 9°C
Humidity 100%
Pressure 1020 hPa
Visibility 10 km or more

METAR: LBGO 240430Z AUTO VRB01KT 9999 NCD 09/09 Q1020 NOSIG

Time: 07:44 (04:44 UTC)

Forecast

The report was made 5 hours and 44 minutes ago, at 23:00 UTC
Forecast valid from 24 at 00 UTC to 24 at 24 UTC
Wind 8 kt from the Southwest
Visibility 10 km or more
no clouds below 1500 m and no cumulonimbus

TAF: LBGO 232300Z 2400/2424 22008KT CAVOK

Weather observations and forecasts of more than 4000 airports (METAR and TAF reports).

The available stations are represented by yellow and red dots on the map.

Hover mouse over dot to see the name of the station.

Then click to see weather observations and forecasts.

To change the map : click on the green buttons with a black cross to zoom in, on the green button with a dash to zoom out, or on the green arrows for adjacent maps.


METAR-TAF: